Time;durP1;ratioP1;P1;durP2;ratioP2;P2;SDS_P1;SDS_P2;PMS_P1;PMS_P2;Temp;Humidity;BMP_temperature;BMP_pressure;BME280_temperature;BME280_humidity;BME280_pressure;Samples;Min_cycle;Max_cycle;Signal;HPM_P1;HPM_P2
2021/09/21 00:01:19;;;;;;;9.07;6.82;;;;;;;12.87;67.31;98648.94;4958237;28;20040;-58
2021/09/21 00:03:45;;;;;;;12.52;7.00;;;;;;;12.58;68.17;98644.00;4959235;28;20030;-57
2021/09/21 00:06:10;;;;;;;9.55;6.68;;;;;;;12.44;69.18;98647.13;4958648;28;20092;-56
2021/09/21 00:08:36;;;;;;;10.20;6.35;;;;;;;13.05;67.37;98646.47;4958501;28;20545;-57
2021/09/21 00:11:04;;;;;;;9.30;6.63;;;;;;;12.81;67.79;98649.19;4957836;28;20042;-59
2021/09/21 00:13:30;;;;;;;9.55;6.50;;;;;;;12.61;68.20;98649.09;4960828;28;20023;-58
2021/09/21 00:15:57;;;;;;;9.20;6.43;;;;;;;12.72;67.36;98650.38;4962983;28;20042;-56
2021/09/21 00:18:23;;;;;;;9.10;6.60;;;;;;;12.69;68.44;98660.97;4962487;28;20073;-58
2021/09/21 00:20:48;;;;;;;11.85;6.57;;;;;;;12.66;68.56;98655.00;4961822;28;20038;-57
2021/09/21 00:23:14;;;;;;;7.88;6.15;;;;;;;12.67;68.63;98649.72;4962800;28;20460;-58
2021/09/21 00:25:39;;;;;;;11.13;7.07;;;;;;;12.59;68.92;98649.16;4962755;28;20153;-56
2021/09/21 00:28:04;;;;;;;15.23;6.82;;;;;;;12.24;69.36;98658.34;4962324;28;20057;-57
2021/09/21 00:30:30;;;;;;;9.45;6.88;;;;;;;12.64;67.99;98648.97;4961658;28;20145;-58
2021/09/21 00:33:16;;;;;;;11.10;7.13;;;;;;;12.50;68.58;98644.28;4963212;28;20027;-56
2021/09/21 00:35:41;;;;;;;7.88;6.10;;;;;;;12.80;68.77;98644.84;4961849;28;20045;-56
2021/09/21 00:38:07;;;;;;;7.57;6.00;;;;;;;12.77;67.23;98637.09;4962119;28;20031;-57
2021/09/21 00:40:32;;;;;;;10.30;6.97;;;;;;;12.31;68.53;98641.50;4961335;28;20117;-59
2021/09/21 00:43:04;;;;;;;9.70;6.70;;;;;;;12.80;67.78;98637.00;4962715;28;20615;-57
2021/09/21 00:45:31;;;;;;;10.07;6.50;;;;;;;12.80;68.32;98639.59;4961723;28;20444;-57
2021/09/21 00:47:56;;;;;;;8.60;7.00;;;;;;;12.47;68.21;98642.63;4925958;28;20186;-56
2021/09/21 00:50:25;;;;;;;11.82;7.38;;;;;;;12.49;68.39;98648.66;4961027;28;20223;-58
2021/09/21 00:52:51;;;;;;;10.75;6.93;;;;;;;12.47;67.77;98642.63;4961938;28;20034;-57
2021/09/21 00:55:17;;;;;;;8.75;6.45;;;;;;;12.76;68.62;98651.13;4961734;28;20511;-57
2021/09/21 00:57:43;;;;;;;13.20;6.80;;;;;;;12.23;69.43;98640.94;4961995;28;20031;-56
2021/09/21 01:00:11;;;;;;;11.32;7.05;;;;;;;12.27;69.02;98647.78;4961312;28;20027;-58
2021/09/21 01:02:37;;;;;;;9.25;6.90;;;;;;;12.10;69.76;98645.78;4961887;28;20058;-58
2021/09/21 01:05:04;;;;;;;11.23;7.03;;;;;;;12.26;71.00;98651.28;4962037;28;20659;-57
2021/09/21 01:07:29;;;;;;;10.68;7.43;;;;;;;12.20;71.09;98654.13;4940778;28;20060;-57
2021/09/21 01:10:10;;;;;;;13.00;7.28;;;;;;;11.88;71.78;98656.13;4944591;28;20026;-58
2021/09/21 01:12:36;;;;;;;11.35;7.18;;;;;;;11.85;74.97;98667.53;4961437;28;20035;-56
2021/09/21 01:15:03;;;;;;;11.48;7.10;;;;;;;11.84;74.40;98671.06;4962521;28;20018;-59
2021/09/21 01:17:29;;;;;;;10.88;6.78;;;;;;;12.20;72.62;98669.81;4960429;28;20035;-56
2021/09/21 01:19:54;;;;;;;10.88;7.32;;;;;;;12.22;70.95;98668.00;4961827;28;20042;-56
2021/09/21 01:22:20;;;;;;;10.90;7.18;;;;;;;12.46;70.23;98666.22;4960660;28;20042;-57
2021/09/21 01:24:45;;;;;;;10.13;7.60;;;;;;;12.31;69.32;98663.31;4960995;28;20026;-58
2021/09/21 01:27:11;;;;;;;9.95;7.22;;;;;;;12.29;69.97;98661.63;4961251;28;20439;-59
2021/09/21 01:29:36;;;;;;;11.63;7.07;;;;;;;11.97;70.79;98668.06;4961449;28;20226;-56
2021/09/21 01:32:03;;;;;;;10.73;7.45;;;;;;;12.12;71.15;98672.72;4960077;28;20050;-57
2021/09/21 01:34:28;;;;;;;10.25;7.50;;;;;;;11.96;73.42;98669.81;4961840;28;20106;-58
2021/09/21 01:36:54;;;;;;;10.95;7.90;;;;;;;11.82;72.81;98672.03;4960420;28;20162;-57
2021/09/21 01:39:19;;;;;;;11.18;7.50;;;;;;;11.85;72.29;98666.69;4961632;28;20491;-56
2021/09/21 01:41:45;;;;;;;9.02;6.72;;;;;;;11.97;72.25;98674.13;4959981;28;20070;-56
2021/09/21 01:44:10;;;;;;;9.38;7.00;;;;;;;12.33;72.53;98673.69;4961987;28;20029;-57
2021/09/21 01:46:36;;;;;;;13.32;7.93;;;;;;;11.81;72.67;98665.94;4961419;28;20400;-56
2021/09/21 01:49:02;;;;;;;9.68;7.13;;;;;;;11.73;73.55;98666.22;4962320;28;20035;-57
2021/09/21 01:54:12;;;;;;;10.30;7.35;;;;;;;11.82;73.29;98682.47;4962679;28;20023;-57
2021/09/21 01:59:22;;;;;;;11.25;7.32;;;;;;;11.60;75.37;98678.03;4961717;28;20104;-58
2021/09/21 02:01:48;;;;;;;10.93;7.70;;;;;;;11.68;75.07;98683.81;4961002;28;20444;-57
2021/09/21 02:04:13;;;;;;;10.38;7.38;;;;;;;11.79;75.58;98672.16;4962510;28;20038;-57
2021/09/21 02:06:40;;;;;;;9.95;7.45;;;;;;;11.76;74.76;98675.72;4961352;28;20054;-57
2021/09/21 02:09:08;;;;;;;12.80;7.32;;;;;;;11.89;73.90;98673.50;4961478;28;20046;-58
2021/09/21 02:11:34;;;;;;;12.25;8.07;;;;;;;11.84;74.53;98685.91;4959981;28;20049;-57
2021/09/21 02:14:00;;;;;;;10.43;7.65;;;;;;;11.12;76.20;98678.72;4961937;28;20201;-57
2021/09/21 02:16:28;;;;;;;13.77;8.52;;;;;;;11.66;74.34;98682.19;4961247;28;20042;-56
2021/09/21 02:18:54;;;;;;;11.85;7.78;;;;;;;11.37;75.50;98682.25;4944217;28;20054;-57
2021/09/21 02:21:20;;;;;;;12.32;8.18;;;;;;;11.22;77.18;98677.53;4960655;28;20138;-57
2021/09/21 02:23:47;;;;;;;10.98;7.70;;;;;;;11.53;76.77;98676.53;4961636;28;20037;-58
2021/09/21 02:26:13;;;;;;;10.95;8.27;;;;;;;11.51;77.14;98678.34;4961251;28;20405;-56
2021/09/21 02:28:38;;;;;;;13.68;7.47;;;;;;;11.61;77.04;98679.72;4961080;28;20507;-56
2021/09/21 02:31:04;;;;;;;11.35;7.80;;;;;;;11.40;77.26;98678.69;4960566;28;20511;-56
2021/09/21 02:33:29;;;;;;;11.05;8.43;;;;;;;11.44;76.64;98685.50;4961400;28;20034;-57
2021/09/21 02:35:55;;;;;;;12.70;7.85;;;;;;;11.12;78.70;98692.66;4961198;28;20358;-58
2021/09/21 02:38:21;;;;;;;11.70;7.85;;;;;;;11.07;78.97;98698.94;4960986;28;20544;-56
2021/09/21 02:40:47;;;;;;;13.73;7.88;;;;;;;10.89;79.79;98693.38;4960012;28;20039;-57
2021/09/21 02:43:12;;;;;;;10.68;8.00;;;;;;;10.96;79.41;98697.50;4960114;28;20038;-58
2021/09/21 02:45:38;;;;;;;11.18;8.15;;;;;;;11.00;79.11;98693.88;4959795;28;20058;-59
2021/09/21 02:48:03;;;;;;;10.95;8.15;;;;;;;11.32;78.04;98694.63;4957709;28;20034;-56
2021/09/21 02:50:29;;;;;;;11.07;7.55;;;;;;;11.31;79.56;98697.28;4958765;28;20132;-56
2021/09/21 02:52:55;;;;;;;11.45;7.85;;;;;;;11.28;77.97;98693.00;4941519;28;20030;-57
2021/09/21 02:55:21;;;;;;;11.82;7.90;;;;;;;11.43;77.56;98696.84;4959493;28;20027;-57
2021/09/21 02:57:46;;;;;;;11.20;8.02;;;;;;;11.79;76.44;98693.91;4958385;28;20833;-57
2021/09/21 03:00:17;;;;;;;12.32;8.32;;;;;;;11.34;76.77;98692.81;4958839;28;20030;-58
2021/09/21 03:02:44;;;;;;;12.35;7.70;;;;;;;11.25;77.65;98693.13;4959749;28;20027;-57
2021/09/21 03:05:24;;;;;;;10.88;7.78;;;;;;;11.10;78.96;98698.81;4958771;28;20023;-57
2021/09/21 03:10:53;;;;;;;13.25;8.40;;;;;;;11.12;79.28;98713.53;4942562;28;20507;-57
2021/09/21 03:18:34;;;;;;;10.18;7.63;;;;;;;11.04;80.15;98719.91;4959431;28;20218;-57
2021/09/21 03:20:59;;;;;;;12.38;8.23;;;;;;;10.82;81.57;98725.78;4958329;28;20628;-56
2021/09/21 03:23:25;;;;;;;10.05;7.70;;;;;;;10.99;81.51;98718.28;4960104;28;20169;-56
2021/09/21 03:25:51;;;;;;;11.95;8.23;;;;;;;10.85;80.50;98723.09;4959679;28;20035;-57
2021/09/21 03:28:16;;;;;;;11.77;7.65;;;;;;;11.11;80.50;98734.47;4941994;28;20026;-58
2021/09/21 03:30:42;;;;;;;11.35;8.00;;;;;;;11.13;80.57;98730.06;4958311;28;20443;-57
2021/09/21 03:33:07;;;;;;;11.07;8.10;;;;;;;11.16;80.04;98730.81;4959500;28;20114;-57
2021/09/21 03:35:33;;;;;;;10.48;7.25;;;;;;;11.43;79.34;98727.34;4959015;28;20177;-58
2021/09/21 03:37:58;;;;;;;14.50;7.85;;;;;;;11.38;79.08;98720.53;4959750;28;20065;-58
2021/09/21 03:40:23;;;;;;;12.02;8.27;;;;;;;11.09;79.98;98728.44;4958057;28;20100;-58
2021/09/21 03:42:49;;;;;;;13.68;9.10;;;;;;;11.16;78.77;98727.34;4959258;28;20018;-59
2021/09/21 03:45:14;;;;;;;10.95;7.72;;;;;;;11.45;78.48;98717.72;4958840;28;20652;-56
2021/09/21 03:47:40;;;;;;;10.40;7.40;;;;;;;11.59;77.39;98718.09;4958762;28;20035;-57
2021/09/21 03:50:06;;;;;;;10.20;7.35;;;;;;;11.68;78.24;98723.03;4958273;28;20071;-56
2021/09/21 03:52:32;;;;;;;10.15;7.60;;;;;;;11.74;76.83;98722.84;4959068;28;20027;-58
2021/09/21 03:54:57;;;;;;;11.98;7.97;;;;;;;11.42;76.29;98730.88;4959574;28;20034;-57
2021/09/21 03:57:23;;;;;;;13.32;8.48;;;;;;;11.34;77.40;98734.59;4941257;28;20576;-57
2021/09/21 03:59:48;;;;;;;11.50;7.55;;;;;;;12.07;76.10;98735.63;4957790;28;20030;-57
2021/09/21 04:02:13;;;;;;;10.60;7.90;;;;;;;11.53;76.53;98734.84;4958349;28;20038;-57
2021/09/21 04:04:39;;;;;;;12.00;8.25;;;;;;;11.58;76.80;98738.16;4959145;28;20034;-57
2021/09/21 04:07:04;;;;;;;13.65;8.73;;;;;;;11.57;75.88;98732.97;4958363;28;20053;-57
2021/09/21 04:09:30;;;;;;;9.90;7.50;;;;;;;12.01;76.12;98735.88;4941838;28;20022;-57
2021/09/21 04:11:55;;;;;;;11.00;7.25;;;;;;;11.96;75.29;98743.00;4957934;28;20050;-57
2021/09/21 04:14:20;;;;;;;10.30;7.20;;;;;;;11.85;76.45;98734.66;4958599;28;20019;-60
2021/09/21 04:16:46;;;;;;;11.23;8.15;;;;;;;11.57;76.84;98746.03;4958528;28;20035;-57
2021/09/21 04:19:11;;;;;;;11.20;8.20;;;;;;;11.53;76.71;98760.13;4959196;28;20019;-59
2021/09/21 04:21:37;;;;;;;12.68;8.35;;;;;;;11.37;77.37;98760.59;4957778;28;20117;-57
2021/09/21 04:24:03;;;;;;;9.93;7.65;;;;;;;11.85;77.72;98750.34;4959149;28;20039;-57
2021/09/21 04:26:28;;;;;;;12.20;8.13;;;;;;;11.74;76.85;98759.41;4958365;28;20046;-57
2021/09/21 04:28:54;;;;;;;10.40;7.38;;;;;;;11.64;77.54;98772.84;4958916;28;20037;-57
2021/09/21 04:31:23;;;;;;;10.02;7.75;;;;;;;11.75;76.77;98762.88;4958737;28;20039;-58
2021/09/21 04:33:49;;;;;;;10.60;7.90;;;;;;;11.80;76.19;98770.56;4958919;28;20090;-57
2021/09/21 04:36:14;;;;;;;11.80;7.38;;;;;;;12.01;76.04;98777.69;4958189;28;20211;-57
2021/09/21 04:38:40;;;;;;;13.35;8.18;;;;;;;11.69;75.71;98787.47;4941276;28;20026;-56
2021/09/21 04:41:05;;;;;;;8.80;6.70;;;;;;;11.95;76.34;98793.59;4957409;28;20035;-58
2021/09/21 04:43:32;;;;;;;10.73;8.15;;;;;;;11.64;77.36;98793.75;4959126;28;20015;-57
2021/09/21 04:45:58;;;;;;;11.65;8.63;;;;;;;11.29;79.19;98799.19;4958569;28;20148;-56
2021/09/21 04:48:24;;;;;;;11.65;8.55;;;;;;;11.45;79.00;98809.13;4958062;28;20066;-58
2021/09/21 04:50:50;;;;;;;11.20;7.70;;;;;;;11.69;79.33;98817.94;4957289;28;20058;-57
2021/09/21 04:53:16;;;;;;;14.30;9.00;;;;;;;11.71;77.03;98811.78;4959126;28;20686;-58
2021/09/21 04:55:41;;;;;;;15.55;8.70;;;;;;;11.41;78.83;98812.75;4958225;28;20045;-57
2021/09/21 04:58:06;;;;;;;10.55;7.60;;;;;;;11.80;77.28;98810.63;4956747;28;20041;-56
2021/09/21 05:00:32;;;;;;;11.45;8.20;;;;;;;11.72;77.28;98818.69;4958882;28;20046;-60
2021/09/21 05:02:58;;;;;;;12.77;9.23;;;;;;;11.65;77.21;98821.56;4957064;28;20034;-57
2021/09/21 05:05:23;;;;;;;11.60;7.18;;;;;;;11.95;76.96;98822.38;4960791;28;20057;-58
2021/09/21 05:07:49;;;;;;;12.07;7.85;;;;;;;11.95;76.33;98833.69;4963988;28;20026;-59
2021/09/21 05:10:16;;;;;;;10.90;8.10;;;;;;;11.69;76.54;98818.81;4963054;28;20034;-58
2021/09/21 05:12:42;;;;;;;12.38;8.48;;;;;;;11.52;77.19;98823.72;4964018;28;20049;-58
2021/09/21 05:15:07;;;;;;;11.57;8.35;;;;;;;11.72;76.76;98826.53;4963784;28;20895;-59
2021/09/21 05:17:33;;;;;;;12.65;8.38;;;;;;;11.52;78.16;98828.94;4963637;28;20629;-58
2021/09/21 05:19:58;;;;;;;13.40;8.30;;;;;;;11.55;77.96;98827.09;4963904;28;20019;-57
2021/09/21 05:22:24;;;;;;;12.60;8.68;;;;;;;11.79;77.08;98834.19;4962550;28;20101;-57
2021/09/21 05:24:49;;;;;;;14.55;8.55;;;;;;;11.76;76.86;98835.13;4964016;28;20499;-57
2021/09/21 05:27:14;;;;;;;10.40;7.95;;;;;;;11.48;78.47;98830.78;4963292;28;20050;-59
2021/09/21 05:29:40;;;;;;;13.18;8.25;;;;;;;11.83;76.92;98838.41;4963972;28;20126;-57
2021/09/21 05:32:05;;;;;;;11.70;8.52;;;;;;;11.53;77.30;98839.34;4962500;28;20038;-58
2021/09/21 05:34:30;;;;;;;11.93;8.68;;;;;;;11.64;77.70;98841.63;4963880;28;20062;-58
2021/09/21 05:36:56;;;;;;;14.40;8.38;;;;;;;11.56;77.39;98841.00;4962927;28;20214;-57
2021/09/21 05:39:21;;;;;;;10.95;8.23;;;;;;;11.71;77.25;98843.16;4963655;28;20034;-57
2021/09/21 05:41:47;;;;;;;13.93;8.45;;;;;;;11.92;77.48;98844.22;4962457;28;20049;-57
2021/09/21 05:44:12;;;;;;;13.88;8.80;;;;;;;11.71;78.46;98845.75;4963759;28;20034;-57
2021/09/21 05:46:37;;;;;;;13.05;8.32;;;;;;;11.87;77.13;98847.88;4945339;28;20134;-57
2021/09/21 05:49:03;;;;;;;11.60;7.93;;;;;;;12.26;76.49;98837.00;4945792;28;20468;-57
2021/09/21 05:51:29;;;;;;;12.30;8.52;;;;;;;11.91;74.38;98839.03;4962194;28;20133;-56
2021/09/21 05:53:56;;;;;;;11.77;7.97;;;;;;;12.40;74.17;98837.38;4963503;28;20027;-57
2021/09/21 05:56:21;;;;;;;15.05;7.85;;;;;;;12.44;73.83;98843.34;4962337;28;20175;-57
2021/09/21 05:58:47;;;;;;;10.13;7.82;;;;;;;12.58;72.32;98846.34;4961606;28;20034;-59
2021/09/21 06:01:13;;;;;;;9.30;7.13;;;;;;;12.60;73.50;98844.53;4961467;28;20795;-58
2021/09/21 06:03:38;;;;;;;10.35;7.75;;;;;;;12.62;71.21;98840.09;4963217;28;20035;-57
2021/09/21 06:06:04;;;;;;;11.32;7.70;;;;;;;12.72;71.80;98849.34;4962272;28;20039;-59
2021/09/21 06:08:29;;;;;;;10.55;8.13;;;;;;;12.51;71.67;98855.31;4962907;28;20031;-57
2021/09/21 06:10:55;;;;;;;11.05;8.27;;;;;;;12.64;70.95;98850.50;4961109;28;20550;-57
2021/09/21 06:13:20;;;;;;;10.85;7.80;;;;;;;12.96;70.47;98866.81;4962564;28;20649;-56
2021/09/21 06:15:47;;;;;;;11.10;7.70;;;;;;;13.14;69.43;98860.03;4962166;28;20846;-58
2021/09/21 06:18:13;;;;;;;9.73;7.35;;;;;;;13.05;69.57;98861.22;4962609;28;20027;-59
2021/09/21 06:20:39;;;;;;;11.52;7.25;;;;;;;12.85;71.87;98870.69;4961463;28;20663;-57
2021/09/21 06:23:05;;;;;;;12.00;8.05;;;;;;;13.03;69.87;98873.53;4962828;28;20066;-58
2021/09/21 06:25:31;;;;;;;10.45;7.13;;;;;;;13.49;69.21;98871.81;4962405;28;20130;-57
2021/09/21 06:27:56;;;;;;;9.88;7.43;;;;;;;13.37;68.40;98874.91;4962572;28;20034;-57
2021/09/21 06:30:21;;;;;;;11.75;8.02;;;;;;;13.23;67.99;98886.75;4961257;28;20047;-57
2021/09/21 06:32:47;;;;;;;10.98;7.55;;;;;;;12.93;69.26;98894.81;4962160;28;20022;-57
2021/09/21 06:35:13;;;;;;;11.15;7.88;;;;;;;12.91;70.72;98901.88;4961972;28;20034;-58
2021/09/21 06:37:39;;;;;;;9.43;7.38;;;;;;;13.00;70.11;98905.09;4961984;28;20027;-56
2021/09/21 06:40:05;;;;;;;9.32;6.68;;;;;;;13.69;68.14;98905.09;4961809;28;20033;-57
2021/09/21 06:42:33;;;;;;;9.23;7.13;;;;;;;13.57;67.80;98906.44;4944927;28;20108;-56
2021/09/21 06:44:58;;;;;;;10.10;7.07;;;;;;;13.37;69.02;98915.06;4961228;28;20031;-57
2021/09/21 06:47:24;;;;;;;13.00;7.50;;;;;;;13.77;67.19;98917.94;4961620;28;20039;-56
2021/09/21 06:49:49;;;;;;;8.95;6.95;;;;;;;13.78;66.36;98904.75;4962281;28;20027;-57
2021/09/21 06:52:15;;;;;;;10.60;8.18;;;;;;;13.44;67.71;98907.84;4960949;28;20070;-57
2021/09/21 06:54:40;;;;;;;10.68;7.55;;;;;;;13.32;67.83;98916.16;4962230;28;20050;-57
2021/09/21 06:57:05;;;;;;;11.23;7.60;;;;;;;13.27;69.01;98925.03;4961309;28;20038;-58
2021/09/21 06:59:31;;;;;;;9.88;7.38;;;;;;;13.57;67.49;98916.09;4962269;28;20025;-57
2021/09/21 07:01:56;;;;;;;9.68;7.38;;;;;;;13.55;67.66;98916.16;4960619;28;20035;-56
2021/09/21 07:04:22;;;;;;;11.98;7.50;;;;;;;14.45;64.47;98919.50;4962177;28;20376;-56
2021/09/21 07:06:47;;;;;;;18.70;7.85;;;;;;;14.19;65.59;98917.09;4961014;28;20035;-59
2021/09/21 07:09:12;;;;;;;10.20;6.88;;;;;;;13.86;67.32;98922.81;4962073;28;20114;-56
2021/09/21 07:11:38;;;;;;;8.43;6.75;;;;;;;13.93;64.44;98907.69;4960364;28;20137;-56
2021/09/21 07:14:03;;;;;;;13.05;7.45;;;;;;;14.26;64.64;98921.19;4962144;28;20495;-59
2021/09/21 07:16:29;;;;;;;9.80;6.82;;;;;;;14.87;61.52;98912.53;4960975;28;20043;-59
2021/09/21 07:18:54;;;;;;;11.50;7.00;;;;;;;14.49;61.99;98916.75;4962113;28;20023;-57
2021/09/21 07:21:19;;;;;;;10.90;6.63;;;;;;;14.71;61.06;98920.19;4960363;28;20146;-57
2021/09/21 07:23:45;;;;;;;10.25;7.10;;;;;;;14.53;61.82;98923.59;4960884;28;20125;-57
2021/09/21 07:26:11;;;;;;;11.77;6.40;;;;;;;14.91;61.54;98929.84;4961465;28;20136;-56
2021/09/21 07:28:37;;;;;;;10.68;6.88;;;;;;;14.85;61.34;98935.38;4960975;28;20031;-57
2021/09/21 07:31:03;;;;;;;10.20;6.78;;;;;;;15.25;60.33;98932.75;4960208;28;20438;-57
2021/09/21 07:33:28;;;;;;;8.75;6.70;;;;;;;15.01;59.86;98935.53;4961724;28;20027;-59
2021/09/21 07:35:53;;;;;;;9.80;7.03;;;;;;;14.63;62.09;98936.28;4960957;28;20035;-57
2021/09/21 07:38:19;;;;;;;8.35;6.45;;;;;;;14.68;62.17;98946.59;4961050;28;20049;-58
2021/09/21 07:40:46;;;;;;;9.73;7.05;;;;;;;15.17;60.00;98947.06;4960563;28;20043;-57
2021/09/21 07:43:11;;;;;;;8.07;6.70;;;;;;;15.09;60.67;98954.47;4944305;28;20041;-57
2021/09/21 07:45:37;;;;;;;10.20;7.28;;;;;;;14.67;62.68;98963.28;4946416;28;20838;-60
2021/09/21 07:48:03;;;;;;;9.23;7.18;;;;;;;14.73;61.36;98962.16;4960958;28;20351;-57
2021/09/21 07:50:28;;;;;;;11.43;6.88;;;;;;;15.35;60.19;98971.69;4960453;28;20062;-56
2021/09/21 07:52:54;;;;;;;10.98;7.18;;;;;;;14.04;63.55;98979.78;4961299;28;20053;-57
2021/09/21 07:55:20;;;;;;;8.98;6.60;;;;;;;15.14;61.55;98984.00;4961032;28;20022;-56
2021/09/21 07:57:46;;;;;;;9.45;6.88;;;;;;;15.30;59.53;98984.19;4960990;28;20082;-59
2021/09/21 08:00:15;;;;;;;12.15;7.53;;;;;;;15.26;59.87;98987.03;4960717;28;20060;-58
2021/09/21 08:02:42;;;;;;;9.70;7.22;;;;;;;14.44;60.89;98983.41;4943302;28;20038;-57
2021/09/21 08:05:08;;;;;;;10.00;6.90;;;;;;;15.12;60.26;98987.63;4960913;28;20022;-57
2021/09/21 08:07:33;;;;;;;11.23;7.00;;;;;;;15.53;60.21;98985.78;4960658;28;20630;-57
2021/09/21 08:10:00;;;;;;;8.23;6.65;;;;;;;14.82;60.60;98990.66;4958486;28;20039;-58
2021/09/21 08:12:26;;;;;;;10.30;7.05;;;;;;;16.04;57.42;98985.22;4958354;28;20039;-58
2021/09/21 08:14:53;;;;;;;7.95;6.22;;;;;;;16.30;56.24;98991.84;4961003;28;20026;-57
2021/09/21 08:17:19;;;;;;;11.35;7.10;;;;;;;15.68;55.80;98993.88;4959680;28;20112;-58
2021/09/21 08:19:44;;;;;;;9.95;6.88;;;;;;;15.43;56.67;98987.94;4961034;28;20171;-55
2021/09/21 08:22:09;;;;;;;8.50;6.40;;;;;;;15.59;56.24;98990.75;4958748;28;20459;-57
2021/09/21 08:24:35;;;;;;;10.50;6.93;;;;;;;17.07;54.96;98983.63;4961107;28;20039;-58
2021/09/21 08:27:00;;;;;;;8.38;6.10;;;;;;;17.77;52.42;98983.44;4959860;28;20547;-55
2021/09/21 08:29:26;;;;;;;8.82;6.03;;;;;;;17.78;52.13;98971.09;4943493;28;20035;-56
2021/09/21 08:31:51;;;;;;;8.63;6.60;;;;;;;17.82;51.75;98964.72;4959236;28;21004;-57
2021/09/21 08:34:17;;;;;;;8.50;6.15;;;;;;;19.21;49.35;98973.47;4962163;28;20038;-57
2021/09/21 08:36:42;;;;;;;7.20;5.63;;;;;;;19.93;47.17;98982.22;4964022;28;20039;-56
2021/09/21 08:39:08;;;;;;;6.95;5.75;;;;;;;19.91;48.36;98984.13;4963879;28;20069;-58
2021/09/21 08:41:33;;;;;;;6.47;5.40;;;;;;;21.65;43.08;98985.78;4962165;28;20045;-57
2021/09/21 08:43:59;;;;;;;7.43;5.38;;;;;;;20.82;44.46;98990.59;4964479;28;20105;-57
2021/09/21 08:46:25;;;;;;;9.10;5.90;;;;;;;20.38;44.34;98981.97;4963719;28;20062;-56
2021/09/21 08:48:50;;;;;;;6.15;5.07;;;;;;;21.75;40.20;98981.50;4964221;28;20026;-56
2021/09/21 08:51:16;;;;;;;8.05;5.57;;;;;;;23.28;38.38;98980.84;4942902;28;20342;-60
2021/09/21 08:53:41;;;;;;;6.68;4.85;;;;;;;22.74;38.19;98979.63;4964156;28;20126;-56
2021/09/21 08:56:07;;;;;;;6.25;5.25;;;;;;;20.80;40.79;98985.41;4963678;28;20097;-57
2021/09/21 08:58:32;;;;;;;7.82;5.40;;;;;;;20.35;40.45;98988.34;4963723;28;20038;-59
2021/09/21 09:01:18;;;;;;;9.27;5.03;;;;;;;22.70;38.56;98996.78;4962874;28;20739;-59
2021/09/21 09:03:56;;;;;;;8.15;5.28;;;;;;;23.40;37.13;99008.34;4963284;28;20531;-58
2021/09/21 09:06:22;;;;;;;6.63;4.50;;;;;;;25.67;33.09;98999.41;4961892;28;20034;-57
2021/09/21 09:08:48;;;;;;;7.68;5.00;;;;;;;23.16;36.48;99001.28;4962758;28;20030;-58
2021/09/21 09:11:22;;;;;;;9.88;4.90;;;;;;;23.02;38.34;99009.44;4962704;28;20050;-57
2021/09/21 09:13:53;;;;;;;6.85;4.80;;;;;;;21.20;39.57;99006.56;4963588;28;20035;-58
2021/09/21 09:16:20;;;;;;;5.20;4.23;;;;;;;23.85;35.35;99013.69;4962869;28;20117;-56
2021/09/21 09:18:49;;;;;;;8.23;4.65;;;;;;;24.60;33.27;99004.06;4963574;28;20034;-56
2021/09/21 09:21:18;;;;;;;6.10;4.25;;;;;;;23.40;36.20;99016.31;4962362;28;20031;-56
2021/09/21 09:23:47;;;;;;;7.07;4.55;;;;;;;23.39;34.93;99014.63;4963710;28;20026;-57
2021/09/21 09:26:13;;;;;;;5.50;4.45;;;;;;;22.89;36.46;99015.69;4934006;28;20058;-57
2021/09/21 09:28:38;;;;;;;6.40;4.80;;;;;;;22.40;38.98;99024.66;4963075;28;20051;-56
2021/09/21 09:31:04;;;;;;;7.47;4.70;;;;;;;21.75;38.53;99017.81;4962089;28;20053;-57
2021/09/21 09:33:33;;;;;;;5.88;4.45;;;;;;;22.27;36.18;99021.22;4963326;28;20026;-57
2021/09/21 09:35:59;;;;;;;6.75;5.18;;;;;;;21.13;39.55;99031.81;4963003;28;20034;-57
2021/09/21 09:38:25;;;;;;;6.32;4.70;;;;;;;21.52;38.65;99032.69;4951996;28;20042;-57
2021/09/21 09:40:56;;;;;;;7.03;4.57;;;;;;;22.50;38.26;99019.53;4962138;28;20058;-57
2021/09/21 09:43:23;;;;;;;8.05;4.32;;;;;;;20.90;38.71;99018.31;4963080;28;20031;-59
2021/09/21 09:45:52;;;;;;;7.25;4.63;;;;;;;22.39;36.99;99017.66;4961837;28;20408;-57
2021/09/21 09:48:20;;;;;;;8.07;4.40;;;;;;;21.66;39.01;99024.63;4962868;28;20488;-56
2021/09/21 09:50:49;;;;;;;6.05;4.35;;;;;;;21.82;36.17;99024.41;4961640;28;20066;-58
2021/09/21 09:53:15;;;;;;;6.45;4.28;;;;;;;22.71;36.15;99025.91;4937050;28;20069;-57
2021/09/21 09:55:44;;;;;;;7.28;4.70;;;;;;;20.78;37.67;99027.09;4962332;28;20034;-56
2021/09/21 09:58:10;;;;;;;8.98;5.05;;;;;;;20.99;40.08;99036.25;4962391;28;20037;-56
2021/09/21 10:00:37;;;;;;;6.38;4.68;;;;;;;22.07;36.17;99031.44;4961696;28;20035;-56
2021/09/21 10:03:03;;;;;;;6.55;4.70;;;;;;;22.11;36.83;99035.59;4963031;28;20042;-57
2021/09/21 10:05:33;;;;;;;8.40;5.05;;;;;;;21.70;40.46;99036.72;4961225;28;20042;-56
2021/09/21 10:07:59;;;;;;;7.47;4.38;;;;;;;21.70;36.21;99035.88;4961163;28;20039;-57
2021/09/21 10:10:25;;;;;;;8.05;4.80;;;;;;;20.87;38.54;99029.13;4961104;28;20047;-56
2021/09/21 10:12:52;;;;;;;6.38;4.78;;;;;;;19.52;38.83;99019.19;4962695;28;20031;-56
2021/09/21 10:15:18;;;;;;;6.10;4.93;;;;;;;22.04;35.79;99020.22;4961784;28;20741;-60
2021/09/21 10:17:56;;;;;;;11.10;4.90;;;;;;;21.97;36.11;99017.13;4962947;28;20019;-58
2021/09/21 10:20:37;;;;;;;6.72;4.95;;;;;;;19.82;40.55;99025.25;4961742;28;20035;-59
2021/09/21 10:23:08;;;;;;;10.30;4.78;;;;;;;20.86;38.44;99030.09;4962232;28;20027;-59
2021/09/21 10:25:35;;;;;;;8.07;4.82;;;;;;;18.88;43.55;99033.56;4962266;28;20031;-59
2021/09/21 10:28:09;;;;;;;7.25;4.80;;;;;;;19.50;40.67;99036.94;4962358;28;20074;-59
2021/09/21 10:30:35;;;;;;;6.35;5.05;;;;;;;19.42;41.87;99048.00;4961149;28;20039;-60
2021/09/21 10:33:00;;;;;;;7.25;5.03;;;;;;;20.21;40.30;99055.44;4962667;28;20034;-60
2021/09/21 10:35:29;;;;;;;10.60;5.03;;;;;;;21.66;39.02;99045.03;4961960;28;20039;-59
2021/09/21 10:38:02;;;;;;;7.15;4.82;;;;;;;19.86;43.24;99041.81;4962243;28;20023;-59
2021/09/21 10:40:49;;;;;;;5.47;4.63;;;;;;;18.42;42.23;99040.63;4961216;28;20051;-59
2021/09/21 10:43:27;;;;;;;5.35;4.70;;;;;;;18.71;40.93;99046.00;4945110;28;20154;-59
2021/09/21 10:46:07;;;;;;;10.13;4.90;;;;;;;18.03;41.90;99041.88;4961145;28;20552;-59
2021/09/21 10:48:38;;;;;;;12.82;5.22;;;;;;;19.05;40.69;99043.13;4961775;28;20138;-60
2021/09/21 10:51:06;;;;;;;8.13;4.65;;;;;;;20.47;39.87;99038.84;4960769;28;20496;-59
2021/09/21 10:53:31;;;;;;;5.85;4.65;;;;;;;19.12;39.52;99043.63;4961918;28;20030;-59
2021/09/21 10:56:05;;;;;;;6.32;5.10;;;;;;;19.35;40.13;99034.28;4961673;28;20416;-60
2021/09/21 10:58:32;;;;;;;7.90;4.60;;;;;;;21.48;36.47;99033.88;4940379;28;20029;-60
2021/09/21 11:00:58;;;;;;;5.60;4.60;;;;;;;22.53;35.90;99029.94;4960613;28;20451;-60
2021/09/21 11:03:26;;;;;;;6.60;4.63;;;;;;;21.49;35.95;99023.16;4962321;28;20835;-59
2021/09/21 11:05:54;;;;;;;7.18;4.70;;;;;;;21.91;34.72;99026.41;4960690;28;20069;-58
2021/09/21 11:08:29;;;;;;;8.02;4.70;;;;;;;21.63;34.99;99030.16;4960653;28;20030;-59
2021/09/21 11:10:59;;;;;;;6.80;4.10;;;;;;;22.17;33.91;99029.00;4959836;28;20121;-59
2021/09/21 11:13:26;;;;;;;7.53;4.63;;;;;;;21.77;35.84;99023.03;4961965;28;20022;-60
2021/09/21 11:15:58;;;;;;;6.13;4.68;;;;;;;21.46;35.75;99017.22;4961259;28;20053;-60
2021/09/21 11:18:23;;;;;;;8.25;4.97;;;;;;;22.20;35.48;99018.13;4961322;28;20697;-60
2021/09/21 11:20:56;;;;;;;6.38;4.22;;;;;;;20.71;36.18;99031.09;4960168;28;20523;-60
2021/09/21 11:23:25;;;;;;;5.13;4.00;;;;;;;22.35;35.21;99026.84;4961437;28;20153;-61
2021/09/21 11:25:52;;;;;;;6.22;4.13;;;;;;;21.46;36.48;99022.53;4959160;28;20504;-57
2021/09/21 11:28:17;;;;;;;8.10;4.70;;;;;;;20.09;37.85;99028.91;4956399;28;20700;-60
2021/09/21 11:30:44;;;;;;;6.57;4.82;;;;;;;20.41;36.20;99029.47;4956133;28;20046;-59
2021/09/21 11:33:15;;;;;;;10.48;5.10;;;;;;;19.93;37.70;99023.75;4957936;28;20569;-59
2021/09/21 11:35:46;;;;;;;8.07;4.82;;;;;;;20.07;36.98;99021.06;4965219;28;20136;-59
2021/09/21 11:38:11;;;;;;;6.82;4.50;;;;;;;19.86;37.92;99017.13;4970604;28;20031;-58
2021/09/21 11:40:37;;;;;;;6.57;4.72;;;;;;;19.70;37.66;99014.56;4956807;28;20085;-59